sensor_id;sensor_type;location;lat;lon;timestamp;pressure;altitude;pressure_sealevel;temperature;humidity
6393;BME280;3229;42.674;23.282;2023-05-20T00:01:53;94949.88;;;16.39;66.68
6393;BME280;3229;42.674;23.282;2023-05-20T00:04:20;94920.75;;;16.22;66.69
6393;BME280;3229;42.674;23.282;2023-05-20T00:06:47;94947.97;;;16.33;66.90
6393;BME280;3229;42.674;23.282;2023-05-20T00:09:13;94947.69;;;16.28;66.97
6393;BME280;3229;42.674;23.282;2023-05-20T00:11:41;94958.44;;;16.31;66.86
6393;BME280;3229;42.674;23.282;2023-05-20T00:14:10;94952.66;;;16.29;66.92
6393;BME280;3229;42.674;23.282;2023-05-20T00:16:36;94948.47;;;16.28;67.10
6393;BME280;3229;42.674;23.282;2023-05-20T00:19:03;94943.47;;;16.27;67.08
6393;BME280;3229;42.674;23.282;2023-05-20T00:21:30;94941.88;;;16.26;67.12
6393;BME280;3229;42.674;23.282;2023-05-20T00:23:58;94947.53;;;16.21;67.28
6393;BME280;3229;42.674;23.282;2023-05-20T00:26:25;94943.34;;;16.20;67.49
6393;BME280;3229;42.674;23.282;2023-05-20T00:28:52;94938.50;;;16.17;67.27
6393;BME280;3229;42.674;23.282;2023-05-20T00:31:20;94937.88;;;16.15;67.37
6393;BME280;3229;42.674;23.282;2023-05-20T00:33:47;94938.81;;;16.14;67.51
6393;BME280;3229;42.674;23.282;2023-05-20T00:36:13;94932.25;;;16.12;67.51
6393;BME280;3229;42.674;23.282;2023-05-20T00:38:40;94926.91;;;16.05;67.58
6393;BME280;3229;42.674;23.282;2023-05-20T00:41:07;94919.84;;;16.07;67.68
6393;BME280;3229;42.674;23.282;2023-05-20T00:43:34;94926.91;;;16.05;67.69
6393;BME280;3229;42.674;23.282;2023-05-20T00:46:00;94840.81;;;15.50;67.65
6393;BME280;3229;42.674;23.282;2023-05-20T00:48:34;94922.13;;;16.02;67.90
6393;BME280;3229;42.674;23.282;2023-05-20T00:51:05;94917.91;;;16.01;67.79
6393;BME280;3229;42.674;23.282;2023-05-20T00:53:33;94917.09;;;16.00;67.69
6393;BME280;3229;42.674;23.282;2023-05-20T00:56:00;94918.06;;;15.99;67.82
6393;BME280;3229;42.674;23.282;2023-05-20T00:58:27;94913.91;;;15.98;68.07
6393;BME280;3229;42.674;23.282;2023-05-20T01:00:54;94914.84;;;15.97;67.87
6393;BME280;3229;42.674;23.282;2023-05-20T01:03:20;94915.03;;;15.96;68.04
6393;BME280;3229;42.674;23.282;2023-05-20T01:05:49;94908.25;;;15.95;68.00
6393;BME280;3229;42.674;23.282;2023-05-20T01:08:15;94903.09;;;15.95;68.10
6393;BME280;3229;42.674;23.282;2023-05-20T01:10:45;94916.16;;;15.93;67.86
6393;BME280;3229;42.674;23.282;2023-05-20T01:13:15;94913.13;;;15.90;68.26
6393;BME280;3229;42.674;23.282;2023-05-20T01:15:44;94910.34;;;15.91;68.05
6393;BME280;3229;42.674;23.282;2023-05-20T01:18:13;94906.50;;;15.87;68.18
6393;BME280;3229;42.674;23.282;2023-05-20T01:20:43;94919.06;;;15.90;68.13
6393;BME280;3229;42.674;23.282;2023-05-20T01:23:13;94921.78;;;15.89;68.20
6393;BME280;3229;42.674;23.282;2023-05-20T01:25:41;94922.78;;;15.88;68.22
6393;BME280;3229;42.674;23.282;2023-05-20T01:28:08;94916.19;;;15.85;68.20
6393;BME280;3229;42.674;23.282;2023-05-20T01:30:41;94916.31;;;15.84;68.32
6393;BME280;3229;42.674;23.282;2023-05-20T01:33:11;94911.34;;;15.82;68.42
6393;BME280;3229;42.674;23.282;2023-05-20T01:35:39;94918.44;;;15.80;68.49
6393;BME280;3229;42.674;23.282;2023-05-20T01:38:07;94911.66;;;15.79;68.56
6393;BME280;3229;42.674;23.282;2023-05-20T01:40:35;94906.69;;;15.77;68.63
6393;BME280;3229;42.674;23.282;2023-05-20T01:43:03;94909.44;;;15.76;68.64
6393;BME280;3229;42.674;23.282;2023-05-20T01:45:30;94908.97;;;15.72;68.72
6393;BME280;3229;42.674;23.282;2023-05-20T01:47:57;94899.44;;;15.73;68.74
6393;BME280;3229;42.674;23.282;2023-05-20T01:50:25;94912.16;;;15.74;68.66
6393;BME280;3229;42.674;23.282;2023-05-20T01:52:52;94907.97;;;15.73;68.70
6393;BME280;3229;42.674;23.282;2023-05-20T01:55:19;94908.78;;;15.74;68.60
6393;BME280;3229;42.674;23.282;2023-05-20T01:57:48;94910.56;;;15.73;68.78
6393;BME280;3229;42.674;23.282;2023-05-20T02:00:15;94906.53;;;15.71;68.61
6393;BME280;3229;42.674;23.282;2023-05-20T02:02:42;94817.81;;;15.16;68.69
6393;BME280;3229;42.674;23.282;2023-05-20T02:05:09;94898.97;;;15.69;68.93
6393;BME280;3229;42.674;23.282;2023-05-20T02:07:36;94889.75;;;15.67;68.80
6393;BME280;3229;42.674;23.282;2023-05-20T02:10:03;94899.13;;;15.68;68.86
6393;BME280;3229;42.674;23.282;2023-05-20T02:12:30;94902.19;;;15.63;69.00
6393;BME280;3229;42.674;23.282;2023-05-20T02:14:58;94896.88;;;15.65;68.99
6393;BME280;3229;42.674;23.282;2023-05-20T02:17:25;94902.19;;;15.63;68.90
6393;BME280;3229;42.674;23.282;2023-05-20T02:19:52;94902.31;;;15.62;69.01
6393;BME280;3229;42.674;23.282;2023-05-20T02:22:18;94897.34;;;15.60;69.08
6393;BME280;3229;42.674;23.282;2023-05-20T02:24:45;94903.47;;;15.59;69.09
6393;BME280;3229;42.674;23.282;2023-05-20T02:27:12;94907.78;;;15.59;69.17
6393;BME280;3229;42.674;23.282;2023-05-20T02:29:39;94899.44;;;15.56;69.28
6393;BME280;3229;42.674;23.282;2023-05-20T02:32:09;94893.47;;;15.56;69.23
6393;BME280;3229;42.674;23.282;2023-05-20T02:34:36;94892.81;;;15.54;69.32
6393;BME280;3229;42.674;23.282;2023-05-20T02:37:03;94890.41;;;15.52;69.38
6393;BME280;3229;42.674;23.282;2023-05-20T02:39:30;94893.97;;;15.51;69.30
6393;BME280;3229;42.674;23.282;2023-05-20T02:41:57;94893.97;;;15.51;69.45
6393;BME280;3229;42.674;23.282;2023-05-20T02:44:24;94889.94;;;15.49;69.45
6393;BME280;3229;42.674;23.282;2023-05-20T02:46:50;94897.84;;;15.47;69.44
6393;BME280;3229;42.674;23.282;2023-05-20T02:49:19;94887.03;;;15.44;69.40
6393;BME280;3229;42.674;23.282;2023-05-20T02:51:45;94899.13;;;15.43;69.36
6393;BME280;3229;42.674;23.282;2023-05-20T02:54:12;94895.09;;;15.41;69.29
6393;BME280;3229;42.674;23.282;2023-05-20T02:56:39;94896.53;;;15.43;69.47
6393;BME280;3229;42.674;23.282;2023-05-20T02:59:06;94890.59;;;15.43;69.57
6393;BME280;3229;42.674;23.282;2023-05-20T03:01:32;94902.50;;;15.44;69.55
6393;BME280;3229;42.674;23.282;2023-05-20T03:04:01;94895.88;;;15.41;69.60
6393;BME280;3229;42.674;23.282;2023-05-20T03:06:29;94898.16;;;15.44;69.54
6393;BME280;3229;42.674;23.282;2023-05-20T03:08:56;94900.72;;;15.44;69.46
6393;BME280;3229;42.674;23.282;2023-05-20T03:11:22;94903.16;;;15.46;69.41
6393;BME280;3229;42.674;23.282;2023-05-20T03:13:50;94904.28;;;15.43;69.40
6393;BME280;3229;42.674;23.282;2023-05-20T03:16:16;94914.09;;;15.48;69.44
6393;BME280;3229;42.674;23.282;2023-05-20T03:18:43;94912.81;;;15.52;69.35
6393;BME280;3229;42.674;23.282;2023-05-20T03:21:10;94900.41;;;15.47;69.19
6393;BME280;3229;42.674;23.282;2023-05-20T03:23:38;94919.06;;;15.57;69.34
6393;BME280;3229;42.674;23.282;2023-05-20T03:26:05;94920.38;;;15.62;69.15
6393;BME280;3229;42.674;23.282;2023-05-20T03:28:32;94920.06;;;15.65;69.33
6393;BME280;3229;42.674;23.282;2023-05-20T03:30:59;94917.31;;;15.66;69.09
6393;BME280;3229;42.674;23.282;2023-05-20T03:33:28;94916.03;;;15.70;69.22
6393;BME280;3229;42.674;23.282;2023-05-20T03:35:55;94918.59;;;15.78;68.89
6393;BME280;3229;42.674;23.282;2023-05-20T03:38:22;94906.03;;;15.75;68.96
6393;BME280;3229;42.674;23.282;2023-05-20T03:40:50;94913.59;;;15.85;68.63
6393;BME280;3229;42.674;23.282;2023-05-20T03:43:17;94923.06;;;15.93;68.82
6393;BME280;3229;42.674;23.282;2023-05-20T03:45:44;94926.78;;;15.98;68.72
6393;BME280;3229;42.674;23.282;2023-05-20T03:48:10;94930.47;;;16.04;68.62
6393;BME280;3229;42.674;23.282;2023-05-20T03:50:37;94934.16;;;16.10;68.48
6393;BME280;3229;42.674;23.282;2023-05-20T03:53:04;94928.34;;;16.16;68.52
6393;BME280;3229;42.674;23.282;2023-05-20T03:55:31;94938.66;;;16.24;68.13
6393;BME280;3229;42.674;23.282;2023-05-20T03:57:59;94931.84;;;16.31;68.19
6393;BME280;3229;42.674;23.282;2023-05-20T04:00:26;94936.34;;;16.37;68.08
6393;BME280;3229;42.674;23.282;2023-05-20T04:02:55;94939.06;;;16.44;67.89
6393;BME280;3229;42.674;23.282;2023-05-20T04:05:22;94932.25;;;16.51;67.88
6393;BME280;3229;42.674;23.282;2023-05-20T04:07:49;94905.19;;;16.39;67.74
6393;BME280;3229;42.674;23.282;2023-05-20T04:10:17;94943.13;;;16.69;67.64
6393;BME280;3229;42.674;23.282;2023-05-20T04:12:44;94942.94;;;16.79;67.43
6393;BME280;3229;42.674;23.282;2023-05-20T04:15:13;94944.22;;;16.83;67.17
6393;BME280;3229;42.674;23.282;2023-05-20T04:17:40;94925.69;;;16.79;67.06
6393;BME280;3229;42.674;23.282;2023-05-20T04:20:08;94958.16;;;17.05;66.92
6393;BME280;3229;42.674;23.282;2023-05-20T04:22:35;94948.94;;;17.11;66.78
6393;BME280;3229;42.674;23.282;2023-05-20T04:25:04;94961.09;;;17.25;66.51
6393;BME280;3229;42.674;23.282;2023-05-20T04:27:31;94959.25;;;17.34;66.39
6393;BME280;3229;42.674;23.282;2023-05-20T04:29:59;94956.28;;;17.45;66.34
6393;BME280;3229;42.674;23.282;2023-05-20T04:32:28;94943.44;;;17.51;66.43
6393;BME280;3229;42.674;23.282;2023-05-20T04:34:55;94930.53;;;17.51;66.01
6393;BME280;3229;42.674;23.282;2023-05-20T04:37:22;94944.56;;;17.72;65.88
6393;BME280;3229;42.674;23.282;2023-05-20T04:39:49;94952.56;;;17.85;65.84
6393;BME280;3229;42.674;23.282;2023-05-20T04:42:16;94947.13;;;17.95;65.59
6393;BME280;3229;42.674;23.282;2023-05-20T04:44:44;94952.06;;;18.04;65.48
6393;BME280;3229;42.674;23.282;2023-05-20T04:47:12;94953.59;;;18.14;65.45
6393;BME280;3229;42.674;23.282;2023-05-20T04:49:40;94958.31;;;18.25;65.27
6393;BME280;3229;42.674;23.282;2023-05-20T04:52:07;94969.38;;;18.34;65.05
6393;BME280;3229;42.674;23.282;2023-05-20T04:54:34;94963.94;;;18.43;64.83
6393;BME280;3229;42.674;23.282;2023-05-20T04:57:01;94958.31;;;18.54;64.61
6393;BME280;3229;42.674;23.282;2023-05-20T04:59:27;94958.31;;;18.69;64.69
6393;BME280;3229;42.674;23.282;2023-05-20T05:01:54;94931.44;;;19.07;82.27
6393;BME280;3229;42.674;23.282;2023-05-20T05:04:21;94952.75;;;19.94;81.61
6393;BME280;3229;42.674;23.282;2023-05-20T05:06:49;94956.66;;;20.81;79.21
6393;BME280;3229;42.674;23.282;2023-05-20T05:09:16;94957.88;;;21.66;76.37
6393;BME280;3229;42.674;23.282;2023-05-20T05:11:43;94953.81;;;22.50;73.77
6393;BME280;3229;42.674;23.282;2023-05-20T05:14:09;94962.13;;;23.30;71.25
6393;BME280;3229;42.674;23.282;2023-05-20T05:16:36;94962.78;;;24.07;69.10
6393;BME280;3229;42.674;23.282;2023-05-20T05:19:03;94963.09;;;24.79;66.98
6393;BME280;3229;42.674;23.282;2023-05-20T05:21:30;94972.50;;;25.47;64.75
6393;BME280;3229;42.674;23.282;2023-05-20T05:23:58;94967.16;;;26.07;62.19
6393;BME280;3229;42.674;23.282;2023-05-20T05:26:25;94959.19;;;26.61;60.63
6393;BME280;3229;42.674;23.282;2023-05-20T05:28:53;94962.63;;;27.13;58.98
6393;BME280;3229;42.674;23.282;2023-05-20T05:31:21;94963.44;;;27.59;58.19
6393;BME280;3229;42.674;23.282;2023-05-20T05:33:47;94961.81;;;28.04;57.36
6393;BME280;3229;42.674;23.282;2023-05-20T05:36:14;94942.56;;;28.37;56.07
6393;BME280;3229;42.674;23.282;2023-05-20T05:38:41;94950.75;;;28.79;54.70
6393;BME280;3229;42.674;23.282;2023-05-20T05:41:10;94956.69;;;29.13;53.81
6393;BME280;3229;42.674;23.282;2023-05-20T05:43:36;94954.13;;;29.45;52.90
6393;BME280;3229;42.674;23.282;2023-05-20T05:46:03;94961.28;;;29.77;51.76
6393;BME280;3229;42.674;23.282;2023-05-20T05:48:31;94960.19;;;30.05;51.27
6393;BME280;3229;42.674;23.282;2023-05-20T05:50:57;94960.38;;;30.31;50.67
6393;BME280;3229;42.674;23.282;2023-05-20T05:53:24;94949.16;;;30.56;50.13
6393;BME280;3229;42.674;23.282;2023-05-20T05:55:51;94956.72;;;30.79;49.70
6393;BME280;3229;42.674;23.282;2023-05-20T05:58:19;94943.84;;;31.03;49.35
6393;BME280;3229;42.674;23.282;2023-05-20T06:00:46;94956.06;;;31.24;48.83
6393;BME280;3229;42.674;23.282;2023-05-20T06:03:13;94948.47;;;31.43;48.71
6393;BME280;3229;42.674;23.282;2023-05-20T06:05:44;94944.25;;;31.63;48.09
6393;BME280;3229;42.674;23.282;2023-05-20T06:08:10;94905.63;;;31.52;48.09
6393;BME280;3229;42.674;23.282;2023-05-20T06:10:37;94949.06;;;31.96;47.24
6393;BME280;3229;42.674;23.282;2023-05-20T06:13:04;94948.25;;;32.11;47.13
6393;BME280;3229;42.674;23.282;2023-05-20T06:15:32;94948.47;;;32.25;46.74
6393;BME280;3229;42.674;23.282;2023-05-20T06:18:00;94951.41;;;32.39;46.49
6393;BME280;3229;42.674;23.282;2023-05-20T06:20:27;94944.47;;;32.53;45.75
6393;BME280;3229;42.674;23.282;2023-05-20T06:22:54;94938.09;;;32.64;45.41
6393;BME280;3229;42.674;23.282;2023-05-20T06:25:20;94939.63;;;32.76;45.35
6393;BME280;3229;42.674;23.282;2023-05-20T06:27:47;94947.53;;;32.86;45.16
6393;BME280;3229;42.674;23.282;2023-05-20T06:30:14;94932.41;;;32.96;44.88
6393;BME280;3229;42.674;23.282;2023-05-20T06:32:44;94941.09;;;33.12;44.79
6393;BME280;3229;42.674;23.282;2023-05-20T06:35:11;94922.97;;;33.25;44.56
6393;BME280;3229;42.674;23.282;2023-05-20T06:37:38;94924.22;;;33.42;44.03
6393;BME280;3229;42.674;23.282;2023-05-20T06:40:06;94930.22;;;33.58;44.00
6393;BME280;3229;42.674;23.282;2023-05-20T06:42:33;94917.91;;;33.73;43.43
6393;BME280;3229;42.674;23.282;2023-05-20T06:44:59;94915.66;;;33.85;43.31
6393;BME280;3229;42.674;23.282;2023-05-20T06:47:26;94918.78;;;33.97;43.19
6393;BME280;3229;42.674;23.282;2023-05-20T06:49:54;94916.06;;;34.07;43.06
6393;BME280;3229;42.674;23.282;2023-05-20T06:52:21;94906.66;;;34.15;42.93
6393;BME280;3229;42.674;23.282;2023-05-20T06:54:48;94918.31;;;34.19;42.79
6393;BME280;3229;42.674;23.282;2023-05-20T06:57:15;94919.09;;;34.19;42.40
6393;BME280;3229;42.674;23.282;2023-05-20T06:59:41;94921.25;;;34.17;42.40
6393;BME280;3229;42.674;23.282;2023-05-20T07:02:08;94926.78;;;34.21;42.40
6393;BME280;3229;42.674;23.282;2023-05-20T07:04:35;94926.50;;;34.23;42.30
6393;BME280;3229;42.674;23.282;2023-05-20T07:07:03;94935.00;;;34.25;42.22
6393;BME280;3229;42.674;23.282;2023-05-20T07:09:30;94928.88;;;34.24;42.05
6393;BME280;3229;42.674;23.282;2023-05-20T07:11:57;94916.44;;;34.19;41.84
6393;BME280;3229;42.674;23.282;2023-05-20T07:14:24;94925.44;;;34.24;41.67
6393;BME280;3229;42.674;23.282;2023-05-20T07:16:51;94920.91;;;34.24;41.51
6393;BME280;3229;42.674;23.282;2023-05-20T07:19:18;94919.31;;;34.23;41.52
6393;BME280;3229;42.674;23.282;2023-05-20T07:21:45;94929.16;;;34.23;41.40
6393;BME280;3229;42.674;23.282;2023-05-20T07:24:13;94933.44;;;34.18;41.31
6393;BME280;3229;42.674;23.282;2023-05-20T07:26:39;94921.84;;;34.09;40.08
6393;BME280;3229;42.674;23.282;2023-05-20T07:29:06;94885.13;;;33.87;39.32
6393;BME280;3229;42.674;23.282;2023-05-20T07:31:34;94914.50;;;34.01;38.97
6393;BME280;3229;42.674;23.282;2023-05-20T07:34:01;94916.06;;;34.02;39.07
6393;BME280;3229;42.674;23.282;2023-05-20T07:36:28;94914.78;;;34.00;38.97
6393;BME280;3229;42.674;23.282;2023-05-20T07:38:55;94893.16;;;33.82;38.83
6393;BME280;3229;42.674;23.282;2023-05-20T07:41:23;94932.31;;;33.95;38.00
6393;BME280;3229;42.674;23.282;2023-05-20T07:43:50;94923.59;;;33.90;37.94
6393;BME280;3229;42.674;23.282;2023-05-20T07:46:17;94922.59;;;33.86;37.59
6393;BME280;3229;42.674;23.282;2023-05-20T07:48:44;94926.56;;;33.83;37.54
6393;BME280;3229;42.674;23.282;2023-05-20T07:51:11;94919.94;;;33.81;37.78
6393;BME280;3229;42.674;23.282;2023-05-20T07:53:38;94901.47;;;33.70;37.67
6393;BME280;3229;42.674;23.282;2023-05-20T07:56:05;94914.63;;;33.81;37.73
6393;BME280;3229;42.674;23.282;2023-05-20T07:58:33;94913.06;;;33.80;37.97
6393;BME280;3229;42.674;23.282;2023-05-20T08:01:00;94908.34;;;33.77;38.13
6393;BME280;3229;42.674;23.282;2023-05-20T08:03:27;94911.53;;;33.74;38.32
6393;BME280;3229;42.674;23.282;2023-05-20T08:05:54;94914.50;;;33.67;38.15
6393;BME280;3229;42.674;23.282;2023-05-20T08:08:21;94916.13;;;33.63;38.04
6393;BME280;3229;42.674;23.282;2023-05-20T08:10:49;94895.28;;;33.51;38.26
6393;BME280;3229;42.674;23.282;2023-05-20T08:13:16;94901.38;;;33.52;38.32
6393;BME280;3229;42.674;23.282;2023-05-20T08:15:44;94882.09;;;33.36;38.65
6393;BME280;3229;42.674;23.282;2023-05-20T08:18:12;94904.22;;;33.60;38.41
6393;BME280;3229;42.674;23.282;2023-05-20T08:20:39;94899.19;;;33.88;38.20
6393;BME280;3229;42.674;23.282;2023-05-20T08:23:07;94899.50;;;34.39;37.66
6393;BME280;3229;42.674;23.282;2023-05-20T08:25:33;94888.72;;;34.79;37.35
6393;BME280;3229;42.674;23.282;2023-05-20T08:28:01;94895.44;;;35.14;36.89
6393;BME280;3229;42.674;23.282;2023-05-20T08:30:29;94891.00;;;35.47;36.48
6393;BME280;3229;42.674;23.282;2023-05-20T08:32:58;94888.34;;;35.80;36.21
6393;BME280;3229;42.674;23.282;2023-05-20T08:35:25;94903.03;;;36.10;36.11
6393;BME280;3229;42.674;23.282;2023-05-20T08:37:51;94887.97;;;36.33;35.73
6393;BME280;3229;42.674;23.282;2023-05-20T08:40:19;94882.84;;;36.50;35.42
6393;BME280;3229;42.674;23.282;2023-05-20T08:42:48;94866.88;;;36.50;35.59
6393;BME280;3229;42.674;23.282;2023-05-20T08:45:18;94885.47;;;36.78;35.20
6393;BME280;3229;42.674;23.282;2023-05-20T08:47:45;94889.81;;;36.87;35.10
6393;BME280;3229;42.674;23.282;2023-05-20T08:50:15;94893.69;;;36.95;35.22
6393;BME280;3229;42.674;23.282;2023-05-20T08:52:43;94890.91;;;37.00;34.80
6393;BME280;3229;42.674;23.282;2023-05-20T08:55:13;94881.53;;;37.03;34.74
6393;BME280;3229;42.674;23.282;2023-05-20T08:57:41;94893.34;;;37.10;34.62
6393;BME280;3229;42.674;23.282;2023-05-20T09:00:12;94893.03;;;37.12;34.67
6393;BME280;3229;42.674;23.282;2023-05-20T09:02:41;94889.59;;;37.11;34.58
6393;BME280;3229;42.674;23.282;2023-05-20T09:05:09;94892.66;;;37.05;34.36
6393;BME280;3229;42.674;23.282;2023-05-20T09:07:38;94882.78;;;36.91;34.82
6393;BME280;3229;42.674;23.282;2023-05-20T09:10:07;94876.91;;;36.81;34.64
6393;BME280;3229;42.674;23.282;2023-05-20T09:12:35;94877.41;;;36.69;34.66
6393;BME280;3229;42.674;23.282;2023-05-20T09:15:02;94872.41;;;36.54;34.65
6393;BME280;3229;42.674;23.282;2023-05-20T09:17:29;94872.88;;;36.56;34.82
6393;BME280;3229;42.674;23.282;2023-05-20T09:19:56;94868.31;;;36.42;34.76
6393;BME280;3229;42.674;23.282;2023-05-20T09:22:22;94876.31;;;36.29;34.87
6393;BME280;3229;42.674;23.282;2023-05-20T09:24:51;94868.59;;;36.13;34.85
6393;BME280;3229;42.674;23.282;2023-05-20T09:27:18;94868.38;;;35.96;34.82
6393;BME280;3229;42.674;23.282;2023-05-20T09:29:49;94866.44;;;35.83;35.00
6393;BME280;3229;42.674;23.282;2023-05-20T09:32:19;94858.22;;;35.65;34.91
6393;BME280;3229;42.674;23.282;2023-05-20T09:34:48;94866.97;;;35.52;34.96
6393;BME280;3229;42.674;23.282;2023-05-20T09:37:17;94857.13;;;35.34;35.16
6393;BME280;3229;42.674;23.282;2023-05-20T09:39:53;94865.31;;;35.18;35.09
6393;BME280;3229;42.674;23.282;2023-05-20T09:42:24;94862.38;;;35.01;35.29
6393;BME280;3229;42.674;23.282;2023-05-20T09:44:54;94858.13;;;34.81;35.37
6393;BME280;3229;42.674;23.282;2023-05-20T09:47:22;94860.25;;;34.60;35.70
6393;BME280;3229;42.674;23.282;2023-05-20T09:49:51;94849.50;;;34.47;35.48
6393;BME280;3229;42.674;23.282;2023-05-20T09:52:18;94845.16;;;34.32;35.43
6393;BME280;3229;42.674;23.282;2023-05-20T09:54:45;94845.09;;;34.13;35.76
6393;BME280;3229;42.674;23.282;2023-05-20T09:57:14;94843.69;;;33.97;35.87
6393;BME280;3229;42.674;23.282;2023-05-20T09:59:42;94847.75;;;33.84;35.98
6393;BME280;3229;42.674;23.282;2023-05-20T10:02:09;94846.00;;;33.74;35.73
6393;BME280;3229;42.674;23.282;2023-05-20T10:04:40;94846.16;;;33.54;35.99
6393;BME280;3229;42.674;23.282;2023-05-20T10:07:28;94834.06;;;33.37;36.03
6393;BME280;3229;42.674;23.282;2023-05-20T10:10:05;94831.25;;;33.24;36.41
6393;BME280;3229;42.674;23.282;2023-05-20T10:12:40;94826.03;;;33.13;36.31
6393;BME280;3229;42.674;23.282;2023-05-20T10:15:16;94818.19;;;32.98;36.45
6393;BME280;3229;42.674;23.282;2023-05-20T10:17:50;94763.09;;;32.51;36.46
6393;BME280;3229;42.674;23.282;2023-05-20T10:20:20;94817.53;;;32.72;36.51
6393;BME280;3229;42.674;23.282;2023-05-20T10:22:54;94778.75;;;32.37;36.72
6393;BME280;3229;42.674;23.282;2023-05-20T10:25:26;94812.13;;;32.38;36.81
6393;BME280;3229;42.674;23.282;2023-05-20T10:28:06;94803.19;;;32.18;37.03
6393;BME280;3229;42.674;23.282;2023-05-20T10:30:34;94799.53;;;32.09;37.10
6393;BME280;3229;42.674;23.282;2023-05-20T10:33:03;94796.09;;;31.98;37.03
6393;BME280;3229;42.674;23.282;2023-05-20T10:35:31;94790.56;;;31.90;37.25
6393;BME280;3229;42.674;23.282;2023-05-20T10:38:07;94800.38;;;31.84;37.00
6393;BME280;3229;42.674;23.282;2023-05-20T10:40:35;94792.94;;;31.81;37.00
6393;BME280;3229;42.674;23.282;2023-05-20T10:43:09;94780.03;;;31.69;36.61
6393;BME280;3229;42.674;23.282;2023-05-20T10:45:46;94774.50;;;31.66;36.91
6393;BME280;3229;42.674;23.282;2023-05-20T10:48:19;94775.56;;;31.55;36.80
6393;BME280;3229;42.674;23.282;2023-05-20T10:50:47;94778.22;;;31.39;36.87
6393;BME280;3229;42.674;23.282;2023-05-20T10:53:14;94771.06;;;31.19;37.23
6393;BME280;3229;42.674;23.282;2023-05-20T10:55:48;94772.63;;;31.00;37.03
6393;BME280;3229;42.674;23.282;2023-05-20T10:58:18;94766.31;;;30.91;36.92
6393;BME280;3229;42.674;23.282;2023-05-20T11:00:47;94773.94;;;30.82;36.96
6393;BME280;3229;42.674;23.282;2023-05-20T11:03:14;94759.09;;;30.61;37.39
6393;BME280;3229;42.674;23.282;2023-05-20T11:05:43;94761.44;;;30.47;37.30
6393;BME280;3229;42.674;23.282;2023-05-20T11:08:11;94765.44;;;30.44;37.57
6393;BME280;3229;42.674;23.282;2023-05-20T11:10:38;94757.22;;;30.46;37.01
6393;BME280;3229;42.674;23.282;2023-05-20T11:13:04;94746.41;;;30.42;37.01
6393;BME280;3229;42.674;23.282;2023-05-20T11:15:34;94748.47;;;30.30;37.38
6393;BME280;3229;42.674;23.282;2023-05-20T11:18:02;94751.09;;;30.15;37.29
6393;BME280;3229;42.674;23.282;2023-05-20T11:20:30;94744.38;;;29.97;37.77
6393;BME280;3229;42.674;23.282;2023-05-20T11:23:00;94740.38;;;29.84;37.98
6393;BME280;3229;42.674;23.282;2023-05-20T11:25:27;94749.56;;;29.71;37.92
6393;BME280;3229;42.674;23.282;2023-05-20T11:27:54;94735.28;;;29.62;37.71
6393;BME280;3229;42.674;23.282;2023-05-20T11:30:21;94737.63;;;29.59;37.79
6393;BME280;3229;42.674;23.282;2023-05-20T11:33:07;94721.97;;;29.47;37.76
6393;BME280;3229;42.674;23.282;2023-05-20T11:35:43;94721.69;;;29.43;37.87
6393;BME280;3229;42.674;23.282;2023-05-20T11:38:11;94711.38;;;29.37;37.93
6393;BME280;3229;42.674;23.282;2023-05-20T11:40:42;94709.81;;;29.41;37.91
6393;BME280;3229;42.674;23.282;2023-05-20T11:43:10;94707.19;;;29.46;38.10
6393;BME280;3229;42.674;23.282;2023-05-20T11:45:38;94708.22;;;29.40;37.74
6393;BME280;3229;42.674;23.282;2023-05-20T11:48:08;94717.13;;;29.29;37.77
6393;BME280;3229;42.674;23.282;2023-05-20T11:50:37;94720.19;;;29.15;38.15
6393;BME280;3229;42.674;23.282;2023-05-20T11:53:06;94711.22;;;29.11;37.87
6393;BME280;3229;42.674;23.282;2023-05-20T11:55:34;94699.34;;;29.14;37.77
6393;BME280;3229;42.674;23.282;2023-05-20T11:58:02;94695.72;;;29.20;37.62
6393;BME280;3229;42.674;23.282;2023-05-20T12:00:29;94630.66;;;28.83;37.77
6393;BME280;3229;42.674;23.282;2023-05-20T12:02:55;94691.81;;;29.28;37.97
6393;BME280;3229;42.674;23.282;2023-05-20T12:05:24;94679.91;;;29.20;37.83
6393;BME280;3229;42.674;23.282;2023-05-20T12:07:50;94681.78;;;29.24;37.99
6393;BME280;3229;42.674;23.282;2023-05-20T12:10:17;94678.53;;;29.12;38.13
6393;BME280;3229;42.674;23.282;2023-05-20T12:12:44;94681.44;;;29.11;38.11
6393;BME280;3229;42.674;23.282;2023-05-20T12:15:11;94680.03;;;28.98;38.31
6393;BME280;3229;42.674;23.282;2023-05-20T12:17:45;94687.28;;;28.86;38.39
6393;BME280;3229;42.674;23.282;2023-05-20T12:20:14;94683.50;;;28.71;38.13
6393;BME280;3229;42.674;23.282;2023-05-20T12:22:43;94699.00;;;28.68;38.81
6393;BME280;3229;42.674;23.282;2023-05-20T12:25:11;94692.31;;;28.55;38.92
6393;BME280;3229;42.674;23.282;2023-05-20T12:27:39;94693.72;;;28.41;39.14
6393;BME280;3229;42.674;23.282;2023-05-20T12:30:07;94701.50;;;28.31;39.11
6393;BME280;3229;42.674;23.282;2023-05-20T12:32:35;94711.63;;;28.17;39.21
6393;BME280;3229;42.674;23.282;2023-05-20T12:35:03;94716.84;;;27.90;39.32
6393;BME280;3229;42.674;23.282;2023-05-20T12:37:30;94738.06;;;27.83;39.58
6393;BME280;3229;42.674;23.282;2023-05-20T12:39:58;94745.47;;;27.69;39.69
6393;BME280;3229;42.674;23.282;2023-05-20T12:42:25;94743.63;;;27.48;39.63
6393;BME280;3229;42.674;23.282;2023-05-20T12:44:52;94743.63;;;27.31;40.17
6393;BME280;3229;42.674;23.282;2023-05-20T12:47:19;94749.63;;;27.10;40.32
6393;BME280;3229;42.674;23.282;2023-05-20T12:49:46;94739.09;;;26.93;40.08
6393;BME280;3229;42.674;23.282;2023-05-20T12:52:13;94743.38;;;26.82;40.40
6393;BME280;3229;42.674;23.282;2023-05-20T12:54:40;94738.28;;;26.75;40.51
6393;BME280;3229;42.674;23.282;2023-05-20T12:57:08;94739.69;;;26.66;40.42
6393;BME280;3229;42.674;23.282;2023-05-20T12:59:35;94726.22;;;26.46;40.61
6393;BME280;3229;42.674;23.282;2023-05-20T13:02:01;94734.75;;;26.53;40.81
6393;BME280;3229;42.674;23.282;2023-05-20T13:04:28;94718.16;;;26.36;40.63
6393;BME280;3229;42.674;23.282;2023-05-20T13:06:56;94732.16;;;26.41;40.94
6393;BME280;3229;42.674;23.282;2023-05-20T13:09:23;94727.84;;;26.35;41.09
6393;BME280;3229;42.674;23.282;2023-05-20T13:11:50;94721.81;;;26.35;40.77
6393;BME280;3229;42.674;23.282;2023-05-20T13:14:18;94707.41;;;26.37;40.65